Time;durP1;ratioP1;P1;durP2;ratioP2;P2;SDS_P1;SDS_P2;PMS_P1;PMS_P2;Temp;Humidity;BMP_temperature;BMP_pressure;BME280_temperature;BME280_humidity;BME280_pressure;Samples;Min_cycle;Max_cycle;Signal;HPM_P1;HPM_P2
2023/07/29 00:00:44;;;;;;;7.67;4.03;;;;;;;18.00;100.00;100123.44;6053639;28;20469;-65
2023/07/29 00:03:40;;;;;;;5.93;3.65;;;;;;;17.87;100.00;100123.47;6053536;28;20026;-65
2023/07/29 00:06:36;;;;;;;6.38;3.72;;;;;;;17.85;100.00;100142.44;6046032;28;20038;-65
2023/07/29 00:09:31;;;;;;;5.80;3.97;;;;;;;17.63;100.00;100137.50;6060163;28;20026;-64
2023/07/29 00:12:26;;;;;;;8.52;4.35;;;;;;;17.53;100.00;100148.63;6062999;28;20060;-65
2023/07/29 00:15:22;;;;;;;9.13;4.60;;;;;;;17.56;100.00;100140.16;6051445;28;20438;-65
2023/07/29 00:18:17;;;;;;;7.37;3.77;;;;;;;17.65;100.00;100141.63;6057907;28;20507;-64
2023/07/29 00:21:12;;;;;;;6.82;3.97;;;;;;;17.62;100.00;100117.91;6047919;28;20029;-65
2023/07/29 00:24:08;;;;;;;7.20;4.43;;;;;;;17.56;100.00;100124.06;6054514;28;20477;-65
2023/07/29 00:27:03;;;;;;;6.93;4.00;;;;;;;17.56;100.00;100125.94;6052052;28;20273;-65
2023/07/29 00:29:58;;;;;;;7.32;3.95;;;;;;;17.61;100.00;100135.00;6059705;28;20264;-65
2023/07/29 00:32:54;;;;;;;7.13;3.30;;;;;;;17.40;100.00;100131.66;6053188;28;20025;-66
2023/07/29 00:35:49;;;;;;;7.97;3.50;;;;;;;17.39;100.00;100130.03;6055610;28;20041;-65
2023/07/29 00:38:44;;;;;;;7.93;3.40;;;;;;;17.32;100.00;100139.88;6061556;28;20026;-65
2023/07/29 00:41:40;;;;;;;5.77;2.83;;;;;;;17.28;100.00;100134.13;6052793;28;20311;-65
2023/07/29 00:44:35;;;;;;;6.80;3.07;;;;;;;17.23;100.00;100131.22;6051101;28;20109;-65
2023/07/29 00:47:30;;;;;;;4.72;3.00;;;;;;;17.36;100.00;100135.78;6056440;28;20292;-65
2023/07/29 00:50:27;;;;;;;5.47;2.87;;;;;;;17.52;100.00;100146.94;6053807;28;20041;-65
2023/07/29 00:53:23;;;;;;;5.00;2.85;;;;;;;17.57;100.00;100136.47;6061265;28;20029;-65
2023/07/29 00:56:18;;;;;;;4.83;2.87;;;;;;;17.46;100.00;100131.69;6059582;28;20061;-65
2023/07/29 00:59:13;;;;;;;4.80;2.67;;;;;;;17.35;100.00;100140.31;6051696;28;20128;-65
2023/07/29 01:02:09;;;;;;;4.80;2.90;;;;;;;17.30;100.00;100121.34;6052166;28;20285;-65
2023/07/29 01:05:06;;;;;;;4.32;2.88;;;;;;;17.39;100.00;100124.66;6053979;28;20083;-65
2023/07/29 01:08:11;;;;;;;3.63;2.42;;;;;;;17.43;100.00;100137.44;6052579;28;20029;-65
2023/07/29 01:11:28;;;;;;;4.28;2.22;;;;;;;17.48;100.00;100118.88;6069499;28;20034;-65
2023/07/29 01:14:23;;;;;;;4.55;2.72;;;;;;;17.52;100.00;100124.66;6052529;28;20529;-64
2023/07/29 01:17:30;;;;;;;5.57;2.33;;;;;;;17.37;100.00;100110.63;6051146;28;20033;-65
2023/07/29 01:20:25;;;;;;;;;;;;;;;17.45;100.00;100130.00;6053664;28;20125;-65
2023/07/29 01:23:30;;;;;;;4.00;2.00;;;;;;;17.45;100.00;100116.59;6055922;28;19913;-65
2023/07/29 01:26:25;;;;;;;7.70;2.22;;;;;;;17.45;100.00;100121.16;6057855;28;20060;-65
2023/07/29 01:29:21;;;;;;;4.28;2.33;;;;;;;17.41;100.00;100106.50;6059160;28;20040;-64
2023/07/29 01:32:40;;;;;;;4.45;2.10;;;;;;;17.28;100.00;100110.81;6057990;28;20030;-65
2023/07/29 01:35:50;;;;;;;3.95;2.10;;;;;;;17.13;100.00;100095.94;6053311;28;20123;-64
2023/07/29 01:38:48;;;;;;;3.22;1.90;;;;;;;17.28;100.00;100120.72;6050882;28;20080;-65
2023/07/29 01:41:43;;;;;;;4.78;1.65;;;;;;;17.13;100.00;100104.81;6049448;28;20034;-65
2023/07/29 01:44:39;;;;;;;3.95;1.85;;;;;;;17.22;100.00;100116.19;6057948;28;20096;-65
2023/07/29 01:47:34;;;;;;;3.50;1.73;;;;;;;17.12;100.00;100092.44;6056495;28;20444;-65
2023/07/29 01:50:31;;;;;;;4.60;1.80;;;;;;;17.19;100.00;100089.78;6050610;28;20036;-65
2023/07/29 01:53:27;;;;;;;4.30;1.70;;;;;;;17.19;100.00;100097.81;6059373;28;20276;-67
2023/07/29 01:56:22;;;;;;;3.40;1.80;;;;;;;17.16;100.00;100098.22;6058732;28;20426;-65
2023/07/29 01:59:17;;;;;;;3.73;1.73;;;;;;;17.15;100.00;100099.25;6057102;28;20382;-65
2023/07/29 02:02:13;;;;;;;2.65;1.60;;;;;;;17.13;100.00;100093.28;6053233;28;20653;-64
2023/07/29 02:05:08;;;;;;;2.93;1.60;;;;;;;17.11;100.00;100095.34;6049338;28;20026;-65
2023/07/29 02:08:03;;;;;;;2.47;1.47;;;;;;;17.18;100.00;100093.47;6051569;28;20042;-64
2023/07/29 02:10:58;;;;;;;2.80;1.50;;;;;;;17.31;100.00;100106.09;6051405;28;20028;-65
2023/07/29 02:13:55;;;;;;;2.70;1.63;;;;;;;17.28;100.00;100093.94;6056859;28;20055;-64
2023/07/29 02:16:50;;;;;;;3.08;1.40;;;;;;;17.22;100.00;100087.53;6049523;28;20030;-65
2023/07/29 02:19:45;;;;;;;2.37;1.40;;;;;;;17.37;100.00;100105.25;6051092;28;20461;-65
2023/07/29 02:22:41;;;;;;;2.77;1.53;;;;;;;17.25;100.00;100087.13;6050014;28;20280;-64
2023/07/29 02:25:36;;;;;;;3.08;1.52;;;;;;;17.46;100.00;100094.13;6051751;28;20393;-65
2023/07/29 02:28:32;;;;;;;2.45;1.42;;;;;;;17.44;100.00;100076.63;6065124;28;20037;-65
2023/07/29 02:31:27;;;;;;;2.30;1.40;;;;;;;17.45;100.00;100084.44;6057101;28;20030;-65
2023/07/29 02:34:22;;;;;;;2.53;1.30;;;;;;;17.43;100.00;100083.81;6072575;28;20731;-65
2023/07/29 02:37:18;;;;;;;4.00;1.53;;;;;;;17.45;100.00;100083.63;6065418;28;20612;-65
2023/07/29 02:40:13;;;;;;;1.95;1.30;;;;;;;17.51;100.00;100097.03;6056627;28;20446;-64
2023/07/29 02:43:08;;;;;;;2.10;1.20;;;;;;;17.58;100.00;100092.50;6054560;28;20034;-65
2023/07/29 02:46:04;;;;;;;3.23;1.40;;;;;;;17.70;100.00;100085.50;6062554;28;20034;-65
2023/07/29 02:48:59;;;;;;;2.30;1.33;;;;;;;17.68;100.00;100076.84;6057850;28;20100;-65
2023/07/29 02:51:54;;;;;;;3.60;1.37;;;;;;;17.88;100.00;100097.47;6059259;28;20037;-65
2023/07/29 02:54:49;;;;;;;2.10;1.23;;;;;;;17.93;100.00;100090.44;6067075;28;20051;-65
2023/07/29 02:57:45;;;;;;;2.10;1.20;;;;;;;17.92;100.00;100069.16;6059541;28;20025;-65
2023/07/29 03:00:43;;;;;;;2.47;1.50;;;;;;;17.99;100.00;100072.69;6063397;28;20538;-65
2023/07/29 03:03:39;;;;;;;3.42;1.20;;;;;;;18.04;100.00;100067.50;6056103;28;20041;-65
2023/07/29 03:06:34;;;;;;;1.73;1.13;;;;;;;18.16;100.00;100084.59;6057602;28;20033;-65
2023/07/29 03:09:29;;;;;;;2.00;1.10;;;;;;;18.11;100.00;100087.09;6054737;28;20381;-65
2023/07/29 03:12:25;;;;;;;2.40;1.20;;;;;;;17.99;100.00;100067.31;6067022;28;20370;-65
2023/07/29 03:15:24;;;;;;;3.93;1.60;;;;;;;17.97;100.00;100085.47;6056260;28;20042;-65
2023/07/29 03:18:19;;;;;;;3.88;1.60;;;;;;;18.01;100.00;100098.28;6061180;28;20061;-65
2023/07/29 03:21:14;;;;;;;3.30;1.60;;;;;;;17.96;100.00;100097.25;6055551;28;20045;-65
2023/07/29 03:24:10;;;;;;;3.93;1.30;;;;;;;17.85;100.00;100085.28;6055584;28;20055;-65
2023/07/29 03:27:07;;;;;;;3.33;1.80;;;;;;;17.87;100.00;100095.81;6055179;28;20045;-65
2023/07/29 03:30:04;;;;;;;4.88;1.40;;;;;;;17.93;100.00;100111.06;6057967;28;20838;-65
2023/07/29 03:32:59;;;;;;;2.80;1.45;;;;;;;17.85;100.00;100088.78;6053953;28;20021;-64
2023/07/29 03:35:54;;;;;;;1.97;1.30;;;;;;;17.93;100.00;100094.97;6064030;28;20112;-65
2023/07/29 03:38:50;;;;;;;4.23;1.90;;;;;;;17.97;100.00;100098.88;6059947;28;20536;-65
2023/07/29 03:41:45;;;;;;;3.07;1.40;;;;;;;17.89;100.00;100077.63;6054490;28;20044;-65
2023/07/29 03:44:40;;;;;;;2.23;1.30;;;;;;;18.05;100.00;100087.91;6061218;28;20045;-65
2023/07/29 03:47:35;;;;;;;3.17;1.30;;;;;;;18.11;100.00;100087.09;6055422;28;20041;-65
2023/07/29 03:50:33;;;;;;;4.13;1.37;;;;;;;18.11;100.00;100079.03;6053801;28;20029;-64
2023/07/29 03:53:28;;;;;;;2.25;1.38;;;;;;;17.99;100.00;100073.47;6063334;28;21556;-65
2023/07/29 03:56:24;;;;;;;3.10;1.53;;;;;;;17.95;100.00;100069.59;6061433;28;20033;-65
2023/07/29 03:59:19;;;;;;;3.80;1.73;;;;;;;17.76;100.00;100040.94;6055746;28;20049;-64
2023/07/29 04:02:14;;;;;;;2.97;1.60;;;;;;;17.83;100.00;100055.97;6059569;28;20370;-64
2023/07/29 04:05:10;;;;;;;3.17;1.47;;;;;;;17.88;100.00;100062.59;6056406;28;20473;-64
2023/07/29 04:08:05;;;;;;;5.80;1.87;;;;;;;17.94;100.00;100091.28;6059422;28;20057;-64
2023/07/29 04:11:00;;;;;;;3.50;1.53;;;;;;;17.91;100.00;100083.63;6060110;28;20041;-65
2023/07/29 04:13:55;;;;;;;2.17;1.40;;;;;;;17.85;100.00;100086.09;6061744;28;20018;-65
2023/07/29 04:16:51;;;;;;;4.03;1.30;;;;;;;17.78;100.00;100068.38;6051985;28;20268;-65
2023/07/29 04:19:46;;;;;;;2.83;1.40;;;;;;;17.88;100.00;100065.28;6056394;28;20033;-65
2023/07/29 04:22:41;;;;;;;3.83;1.57;;;;;;;17.89;100.00;100050.81;6054871;28;20033;-65
2023/07/29 04:25:37;;;;;;;3.40;1.30;;;;;;;18.11;100.00;100052.19;6053351;28;20281;-65
2023/07/29 04:28:32;;;;;;;1.93;1.37;;;;;;;18.27;100.00;100054.41;6060918;28;20295;-65
2023/07/29 04:31:27;;;;;;;4.10;1.53;;;;;;;18.28;100.00;100042.66;6053316;28;20033;-64
2023/07/29 04:34:23;;;;;;;3.10;1.50;;;;;;;18.45;100.00;100046.53;6059526;28;20033;-65
2023/07/29 04:37:18;;;;;;;3.20;1.38;;;;;;;18.57;100.00;100058.25;6062613;28;20091;-64
2023/07/29 04:40:14;;;;;;;2.53;1.40;;;;;;;18.59;100.00;100041.94;6050531;28;20075;-65
2023/07/29 04:43:09;;;;;;;3.85;2.25;;;;;;;18.54;100.00;100044.41;6058132;28;20378;-64
2023/07/29 04:46:08;;;;;;;3.93;1.30;;;;;;;18.56;100.00;100042.38;6061042;28;20038;-65
2023/07/29 04:49:03;;;;;;;2.35;1.58;;;;;;;18.57;100.00;100044.00;6054374;28;20071;-65
2023/07/29 04:51:59;;;;;;;5.13;1.63;;;;;;;18.65;100.00;100041.06;6054937;28;20054;-64
2023/07/29 04:54:54;;;;;;;2.37;1.47;;;;;;;18.69;100.00;100059.25;6054793;28;20419;-64
2023/07/29 04:57:49;;;;;;;2.50;1.53;;;;;;;18.68;100.00;100052.22;6052415;28;20038;-65
2023/07/29 05:00:46;;;;;;;2.07;1.20;;;;;;;18.60;100.00;100055.16;6061462;28;20026;-65
2023/07/29 05:03:42;;;;;;;3.85;1.70;;;;;;;18.61;100.00;100029.94;6061178;28;20036;-65
2023/07/29 05:06:37;;;;;;;2.60;1.50;;;;;;;18.66;100.00;100046.25;6053961;28;20022;-65
2023/07/29 05:09:32;;;;;;;3.97;1.63;;;;;;;18.62;100.00;100023.50;6062369;28;20033;-64
2023/07/29 05:12:29;;;;;;;3.17;1.50;;;;;;;18.73;100.00;100033.59;6053654;28;20458;-64
2023/07/29 05:15:24;;;;;;;5.75;1.60;;;;;;;18.82;100.00;100032.31;6071261;28;20029;-65
2023/07/29 05:18:19;;;;;;;3.77;1.40;;;;;;;18.93;100.00;100034.31;6065634;28;20083;-65
2023/07/29 05:21:15;;;;;;;2.83;1.50;;;;;;;18.85;100.00;100018.44;6054840;28;20354;-65
2023/07/29 05:24:10;;;;;;;3.43;1.53;;;;;;;18.82;100.00;100024.25;6049464;28;20296;-64
2023/07/29 05:27:05;;;;;;;3.43;1.30;;;;;;;19.00;100.00;100029.69;6050266;28;20272;-65
2023/07/29 05:30:01;;;;;;;3.70;1.30;;;;;;;19.12;100.00;100031.69;6050051;28;20029;-65
2023/07/29 05:32:57;;;;;;;3.03;1.63;;;;;;;18.99;100.00;100033.44;6050043;28;20036;-64
2023/07/29 05:35:52;;;;;;;2.97;1.60;;;;;;;18.89;100.00;100026.88;6050132;28;20082;-65
2023/07/29 05:38:48;;;;;;;2.77;1.30;;;;;;;18.94;100.00;100029.75;6049940;28;20037;-65
2023/07/29 05:41:43;;;;;;;2.50;1.50;;;;;;;18.91;100.00;100035.56;6050148;28;20444;-65
2023/07/29 05:44:38;;;;;;;6.43;1.60;;;;;;;18.89;100.00;100038.44;6049229;28;20040;-65
2023/07/29 05:47:34;;;;;;;3.60;1.50;;;;;;;18.91;100.00;100059.75;6050006;28;20033;-65
2023/07/29 05:50:29;;;;;;;2.00;1.20;;;;;;;18.86;100.00;100057.69;6049721;28;20539;-64
2023/07/29 05:53:24;;;;;;;4.32;1.65;;;;;;;18.73;100.00;100033.59;6053502;28;20022;-65
2023/07/29 05:56:20;;;;;;;2.67;1.37;;;;;;;18.76;100.00;100046.59;6058629;28;20033;-65
2023/07/29 05:59:16;;;;;;;3.00;1.60;;;;;;;18.89;100.00;100051.88;6055539;28;20389;-65
2023/07/29 06:02:11;;;;;;;2.80;1.50;;;;;;;18.82;100.00;100045.72;6067056;28;20060;-65
2023/07/29 06:05:07;;;;;;;2.80;1.50;;;;;;;18.76;100.00;100038.53;6049581;28;20029;-65
2023/07/29 06:08:02;;;;;;;2.97;1.60;;;;;;;18.80;100.00;100034.38;6054793;28;20056;-65
2023/07/29 06:10:58;;;;;;;4.65;1.70;;;;;;;18.89;100.00;100054.56;6066315;28;20030;-65
2023/07/29 06:13:53;;;;;;;3.20;1.60;;;;;;;18.73;100.00;100035.44;6053637;28;20026;-65
2023/07/29 06:16:48;;;;;;;3.53;1.80;;;;;;;18.65;100.00;100036.53;6054679;28;20162;-65
2023/07/29 06:19:43;;;;;;;3.13;1.80;;;;;;;18.77;100.00;100048.25;6066894;28;20061;-65
2023/07/29 06:22:39;;;;;;;2.63;1.57;;;;;;;18.79;100.00;100046.16;6053906;28;20351;-65
2023/07/29 06:25:34;;;;;;;2.43;1.37;;;;;;;18.74;100.00;100035.25;6053672;28;20482;-65
2023/07/29 06:28:29;;;;;;;5.50;1.73;;;;;;;18.69;100.00;100027.00;6056498;28;20037;-64
2023/07/29 06:31:25;;;;;;;2.53;1.30;;;;;;;18.67;100.00;100021.00;6053917;28;20026;-64
2023/07/29 06:34:20;;;;;;;3.03;1.60;;;;;;;18.56;100.00;100021.72;6053596;28;20426;-64
2023/07/29 06:37:15;;;;;;;2.22;1.38;;;;;;;18.49;100.00;100018.22;6053632;28;20297;-64
2023/07/29 06:40:11;;;;;;;4.13;1.70;;;;;;;18.39;100.00;100012.47;6055939;28;20048;-64
2023/07/29 06:43:06;;;;;;;3.22;1.80;;;;;;;18.28;100.00;100007.75;6054514;28;20373;-63
2023/07/29 06:46:01;;;;;;;4.97;2.13;;;;;;;18.29;100.00;100015.59;6054266;28;20042;-63
2023/07/29 06:48:57;;;;;;;4.33;2.13;;;;;;;18.31;100.00;100012.72;6054742;28;20060;-63
2023/07/29 06:51:52;;;;;;;4.87;2.00;;;;;;;18.26;100.00;100013.31;6053791;28;20491;-64
2023/07/29 06:54:47;;;;;;;6.77;2.10;;;;;;;18.27;100.00;100033.78;6052955;28;20033;-64
2023/07/29 06:57:43;;;;;;;4.43;2.10;;;;;;;18.32;100.00;100033.13;6054438;28;20288;-64
2023/07/29 07:00:38;;;;;;;3.47;2.00;;;;;;;18.30;100.00;100038.72;6055126;28;20046;-64
2023/07/29 07:03:33;;;;;;;3.60;1.93;;;;;;;18.27;100.00;100033.78;6052919;28;20110;-64
2023/07/29 07:06:29;;;;;;;5.73;2.17;;;;;;;18.36;100.00;100043.25;6053218;28;20037;-64
2023/07/29 07:09:24;;;;;;;3.83;2.20;;;;;;;18.31;100.00;100028.81;6063531;28;20047;-64
2023/07/29 07:12:19;;;;;;;3.33;1.73;;;;;;;18.37;100.00;100042.19;6058338;28;20336;-63
2023/07/29 07:15:14;;;;;;;3.87;1.80;;;;;;;18.59;100.00;100058.84;6059139;28;20307;-64
2023/07/29 07:18:10;;;;;;;3.50;1.70;;;;;;;18.62;100.00;100041.50;6061547;28;20084;-64
2023/07/29 07:21:05;;;;;;;3.50;1.20;;;;;;;18.92;100.00;100043.38;6054958;28;20053;-64
2023/07/29 07:24:01;;;;;;;4.33;1.50;;;;;;;19.02;100.00;100054.47;6057049;28;20037;-64
2023/07/29 07:26:56;;;;;;;4.38;1.40;;;;;;;18.85;100.00;100044.47;6064355;28;20049;-64
2023/07/29 07:29:52;;;;;;;2.60;1.30;;;;;;;18.75;100.00;100033.38;6052772;28;20064;-64
2023/07/29 07:32:47;;;;;;;2.23;1.10;;;;;;;18.91;100.00;100049.81;6052547;28;20034;-64
2023/07/29 07:35:42;;;;;;;2.00;1.20;;;;;;;18.87;100.00;100045.91;6044450;28;20037;-64
2023/07/29 07:38:38;;;;;;;2.50;1.30;;;;;;;18.96;100.00;100059.91;6076080;28;20343;-64
2023/07/29 07:41:33;;;;;;;2.97;1.30;;;;;;;19.00;100.00;100059.25;6057922;28;20272;-65
2023/07/29 07:44:28;;;;;;;2.43;1.37;;;;;;;18.92;100.00;100051.44;6051677;28;20033;-64
2023/07/29 07:47:23;;;;;;;4.17;1.30;;;;;;;18.91;100.00;100055.19;6052381;28;20394;-64
2023/07/29 07:50:19;;;;;;;4.90;1.30;;;;;;;19.00;100.00;100053.88;6054665;28;20037;-65
2023/07/29 07:53:14;;;;;;;2.72;1.10;;;;;;;19.17;100.00;100045.28;6054796;28;20029;-65
2023/07/29 07:56:10;;;;;;;2.50;1.10;;;;;;;18.91;100.00;100032.88;6075727;28;20042;-64
2023/07/29 07:59:05;;;;;;;2.70;1.20;;;;;;;18.97;100.00;100040.88;6051757;28;20484;-65
2023/07/29 08:02:00;;;;;;;2.58;1.10;;;;;;;18.84;100.00;100035.59;6052754;28;20040;-64
2023/07/29 08:04:56;;;;;;;2.03;1.00;;;;;;;18.85;100.00;100022.97;6056908;28;20046;-65
2023/07/29 08:07:51;;;;;;;3.30;1.20;;;;;;;19.14;100.00;100032.28;6055216;28;20030;-65
2023/07/29 08:10:46;;;;;;;1.67;1.00;;;;;;;19.36;100.00;100025.50;6058619;28;20092;-65
2023/07/29 08:13:41;;;;;;;2.00;1.00;;;;;;;19.36;100.00;100003.97;6058347;28;20378;-65
2023/07/29 08:16:37;;;;;;;2.83;1.03;;;;;;;19.84;100.00;100021.13;6051794;28;20037;-65
2023/07/29 08:19:32;;;;;;;2.57;0.90;;;;;;;20.14;100.00;100016.66;6067773;28;20041;-65
2023/07/29 08:22:27;;;;;;;2.97;0.90;;;;;;;20.50;100.00;99985.34;6060578;28;20413;-65
2023/07/29 08:25:25;;;;;;;1.93;1.00;;;;;;;20.46;100.00;99992.28;6050949;28;20272;-66
2023/07/29 08:28:21;;;;;;;1.13;0.70;;;;;;;20.88;100.00;99990.41;6064084;28;20029;-65
2023/07/29 08:31:16;;;;;;;1.70;0.70;;;;;;;20.86;100.00;99996.03;6072307;28;20033;-65
2023/07/29 08:34:11;;;;;;;1.53;0.50;;;;;;;21.28;100.00;100016.56;6060108;28;20022;-66
2023/07/29 08:37:06;;;;;;;2.33;0.77;;;;;;;21.81;100.00;100012.94;6073767;28;20088;-66
2023/07/29 08:40:03;;;;;;;2.30;0.90;;;;;;;21.71;100.00;100010.00;6062300;28;20053;-66
2023/07/29 08:42:59;;;;;;;1.73;0.57;;;;;;;21.59;100.00;100007.31;6058254;28;20030;-66
2023/07/29 08:45:54;;;;;;;0.70;0.50;;;;;;;21.70;100.00;100001.09;6050340;28;20102;-66
2023/07/29 08:48:52;;;;;;;0.73;0.60;;;;;;;21.56;100.00;100025.84;6051643;28;20029;-65
2023/07/29 08:51:48;;;;;;;0.70;0.60;;;;;;;21.39;100.00;100009.53;6054357;28;20033;-66
2023/07/29 08:54:43;;;;;;;1.10;0.75;;;;;;;21.43;100.00;100009.88;6049937;28;20029;-66
2023/07/29 08:57:38;;;;;;;1.57;0.67;;;;;;;21.56;100.00;99993.47;6051145;28;20051;-66
2023/07/29 09:00:34;;;;;;;3.20;1.00;;;;;;;21.85;100.00;99987.13;6049517;28;20034;-66
2023/07/29 09:03:29;;;;;;;1.58;0.82;;;;;;;22.37;100.00;100001.44;6055301;28;20226;-66
2023/07/29 09:06:27;;;;;;;1.47;1.00;;;;;;;22.59;99.45;100010.53;6074127;28;20042;-66
2023/07/29 09:09:22;;;;;;;1.05;0.90;;;;;;;22.54;97.85;99996.91;6055612;28;20022;-65
2023/07/29 09:12:18;;;;;;;2.07;1.17;;;;;;;22.56;95.60;100013.72;6050541;28;20037;-66
2023/07/29 09:15:26;;;;;;;2.83;1.55;;;;;;;22.14;97.60;99996.94;6045790;28;20025;-66
2023/07/29 09:18:22;;;;;;;2.17;1.60;;;;;;;22.13;99.66;99992.59;6050282;28;20033;-65
2023/07/29 09:21:18;;;;;;;3.40;1.38;;;;;;;22.24;98.17;99994.44;6047338;28;20037;-65
2023/07/29 09:24:17;;;;;;;2.22;1.60;;;;;;;22.07;96.97;100007.03;6051606;28;20083;-66
2023/07/29 09:27:27;;;;;;;3.72;1.48;;;;;;;21.67;99.61;100000.72;6061091;28;20033;-65
2023/07/29 09:30:22;;;;;;;2.83;1.50;;;;;;;21.66;100.00;99991.00;6045987;28;20460;-65
2023/07/29 09:33:18;;;;;;;2.60;1.50;;;;;;;21.53;100.00;99999.31;6049966;28;20040;-66
2023/07/29 09:36:15;;;;;;;4.25;1.50;;;;;;;21.47;100.00;99989.50;6067746;28;20029;-65
2023/07/29 09:39:12;;;;;;;3.67;1.80;;;;;;;21.56;100.00;99998.84;6068479;28;20112;-65
2023/07/29 09:42:11;;;;;;;3.17;1.70;;;;;;;21.59;100.00;99988.41;6045114;28;20033;-65
2023/07/29 09:45:07;;;;;;;2.60;1.80;;;;;;;21.57;100.00;99995.09;6049699;28;20037;-65
2023/07/29 09:48:04;;;;;;;5.35;1.70;;;;;;;21.62;100.00;99992.53;6058215;28;20029;-66
2023/07/29 09:51:00;;;;;;;2.50;1.67;;;;;;;21.70;99.66;99986.78;6055968;28;20056;-65
2023/07/29 09:53:55;;;;;;;2.60;1.70;;;;;;;21.97;97.55;99996.03;6049527;28;20549;-65
2023/07/29 09:56:51;;;;;;;2.15;1.55;;;;;;;22.28;96.79;99992.09;6055065;28;20043;-66
2023/07/29 09:59:56;;;;;;;2.70;1.80;;;;;;;22.16;95.63;99986.72;6061605;28;20038;-65
2023/07/29 10:02:52;;;;;;;3.00;2.13;;;;;;;22.31;94.19;99989.72;6045651;28;20571;-66
2023/07/29 10:05:47;;;;;;;3.10;1.75;;;;;;;22.87;94.73;99993.50;6045918;28;20069;-66
2023/07/29 10:08:43;;;;;;;4.32;1.60;;;;;;;23.09;89.76;99981.75;6057721;28;20041;-66
2023/07/29 10:11:39;;;;;;;3.88;1.80;;;;;;;23.47;90.74;99980.19;6045913;28;20775;-66
2023/07/29 10:14:34;;;;;;;3.35;2.15;;;;;;;23.32;85.61;99961.78;6047980;28;20045;-66
2023/07/29 10:17:32;;;;;;;2.70;1.70;;;;;;;23.65;84.96;99958.25;6045744;28;20034;-66
2023/07/29 10:20:28;;;;;;;4.35;2.03;;;;;;;23.83;84.30;99976.09;6048480;28;20057;-66
2023/07/29 10:23:24;;;;;;;3.25;1.77;;;;;;;23.78;84.06;99971.41;6066574;28;20048;-66
2023/07/29 10:26:23;;;;;;;3.10;2.40;;;;;;;23.40;84.44;99984.97;6045566;28;20572;-65
2023/07/29 10:29:21;;;;;;;5.45;2.42;;;;;;;23.43;83.24;99990.69;6060789;28;20046;-66
2023/07/29 10:32:16;;;;;;;4.10;2.83;;;;;;;23.15;83.64;99998.06;6045398;28;20026;-66
2023/07/29 10:35:12;;;;;;;4.40;2.30;;;;;;;23.29;85.30;99989.34;6043913;28;20036;-65
2023/07/29 10:38:08;;;;;;;3.20;2.35;;;;;;;23.61;84.97;99989.59;6046374;28;20025;-66
2023/07/29 10:41:03;;;;;;;3.53;2.15;;;;;;;24.00;82.00;99980.38;6047636;28;20038;-66
2023/07/29 10:43:59;;;;;;;4.47;3.13;;;;;;;24.06;80.42;99973.16;6045543;28;20401;-66
2023/07/29 10:46:55;;;;;;;7.90;3.70;;;;;;;24.55;75.69;99974.84;6045857;28;20038;-66
2023/07/29 10:49:56;;;;;;;6.03;3.88;;;;;;;25.08;75.95;99986.78;6045932;28;20380;-66
2023/07/29 10:52:52;;;;;;;5.03;3.50;;;;;;;25.48;73.27;99962.66;6048009;28;20037;-66
2023/07/29 10:55:47;;;;;;;6.78;3.92;;;;;;;25.50;71.88;99973.25;6049296;28;20404;-66
2023/07/29 10:58:43;;;;;;;5.93;4.23;;;;;;;25.72;69.33;99972.06;6056386;28;20065;-67
2023/07/29 11:01:40;;;;;;;7.05;4.97;;;;;;;25.00;67.63;99962.81;6049777;28;20033;-66
2023/07/29 11:04:46;;;;;;;6.40;4.38;;;;;;;24.56;70.09;99962.94;6047688;28;20109;-66
2023/07/29 11:07:47;;;;;;;;;;;;;;;23.88;76.17;99966.16;6053854;28;20028;-66
2023/07/29 11:10:44;;;;;;;8.27;4.50;;;;;;;23.03;79.17;99957.53;6073929;28;19919;-65
2023/07/29 11:13:39;;;;;;;7.18;4.65;;;;;;;23.39;81.87;99954.38;6064166;28;20046;-66
2023/07/29 11:16:34;;;;;;;6.83;4.40;;;;;;;23.86;78.32;99946.59;6049531;28;20041;-66
2023/07/29 11:19:30;;;;;;;6.57;4.40;;;;;;;24.52;74.38;99940.09;6049629;28;20062;-66
2023/07/29 11:22:25;;;;;;;7.10;4.70;;;;;;;24.42;72.83;99956.25;6064495;28;20166;-66
2023/07/29 11:25:22;;;;;;;6.43;4.50;;;;;;;24.00;73.93;99952.47;6052433;28;20492;-65
2023/07/29 11:28:17;;;;;;;5.82;4.00;;;;;;;23.81;73.33;99951.16;6072965;28;20039;-66
2023/07/29 11:31:14;;;;;;;7.87;4.13;;;;;;;23.76;72.75;99961.91;6059021;28;20029;-66
2023/07/29 11:34:09;;;;;;;5.38;3.90;;;;;;;24.20;72.01;99963.59;6046940;28;20026;-66
2023/07/29 11:37:06;;;;;;;5.13;3.60;;;;;;;24.62;65.88;99940.19;6049506;28;20496;-66
2023/07/29 11:40:02;;;;;;;17.70;5.15;;;;;;;25.10;67.64;99946.63;6048397;28;20036;-66
2023/07/29 11:42:58;;;;;;;11.00;3.50;;;;;;;24.99;64.01;99944.91;6049029;28;20033;-66
2023/07/29 11:45:53;;;;;;;4.57;3.10;;;;;;;24.80;65.03;99936.31;6048726;28;20037;-66
2023/07/29 11:48:48;;;;;;;5.00;2.90;;;;;;;24.40;65.09;99939.44;6049523;28;20044;-66
2023/07/29 11:51:43;;;;;;;4.13;2.67;;;;;;;24.07;64.20;99942.28;6048439;28;20022;-66
2023/07/29 11:54:39;;;;;;;5.00;2.53;;;;;;;24.02;64.25;99944.94;6048603;28;20030;-66
2023/07/29 11:57:36;;;;;;;3.97;2.60;;;;;;;24.65;63.08;99945.09;6047973;28;20486;-66
2023/07/29 12:00:31;;;;;;;3.83;2.70;;;;;;;25.17;63.11;99941.78;6049085;28;20084;-66
2023/07/29 12:03:27;;;;;;;4.07;2.63;;;;;;;25.12;62.45;99960.72;6045670;28;20501;-67
2023/07/29 12:06:24;;;;;;;4.95;2.60;;;;;;;24.90;64.70;99968.97;6052273;28;20315;-66
2023/07/29 12:09:19;;;;;;;3.88;2.33;;;;;;;24.66;63.01;99967.63;6065619;28;20029;-66
2023/07/29 12:12:15;;;;;;;5.18;2.13;;;;;;;24.66;58.49;99967.63;6068935;28;20095;-67
2023/07/29 12:15:10;;;;;;;3.53;1.80;;;;;;;25.27;57.29;99964.41;6047492;28;20053;-66
2023/07/29 12:18:05;;;;;;;5.27;1.77;;;;;;;25.62;55.15;99958.41;6050566;28;20295;-66
2023/07/29 12:21:01;;;;;;;4.50;1.90;;;;;;;25.95;53.23;99989.84;6059917;28;20033;-67
2023/07/29 12:23:56;;;;;;;3.60;1.70;;;;;;;25.60;51.84;99979.56;6051555;28;20292;-67
2023/07/29 12:26:52;;;;;;;2.92;1.67;;;;;;;25.88;51.34;99987.34;6047309;28;20030;-66
2023/07/29 12:29:48;;;;;;;3.67;1.92;;;;;;;26.18;52.75;99985.88;6048959;28;20189;-66
2023/07/29 12:32:46;;;;;;;2.00;1.20;;;;;;;25.78;49.22;99965.56;6059370;28;20069;-66
2023/07/29 12:35:42;;;;;;;2.13;1.13;;;;;;;25.55;50.11;99984.97;6044635;28;20029;-66
2023/07/29 12:38:37;;;;;;;1.60;1.07;;;;;;;25.72;49.69;99961.19;6046989;28;20466;-66
2023/07/29 12:41:32;;;;;;;2.70;1.10;;;;;;;25.64;49.03;99969.84;6047344;28;20284;-66
2023/07/29 12:44:33;;;;;;;1.83;1.20;;;;;;;25.66;51.09;99959.50;6045522;28;20472;-66
2023/07/29 12:47:28;;;;;;;2.10;1.17;;;;;;;25.62;50.60;99980.16;6053764;28;20064;-66
2023/07/29 12:50:24;;;;;;;2.30;1.20;;;;;;;25.13;52.23;99973.25;6047105;28;20473;-66
2023/07/29 12:53:19;;;;;;;1.52;0.98;;;;;;;25.10;54.24;99965.63;6046705;28;20061;-66
2023/07/29 12:56:15;;;;;;;1.80;0.90;;;;;;;25.37;52.81;99982.66;6050766;28;20041;-66
2023/07/29 12:59:10;;;;;;;3.50;1.00;;;;;;;25.57;51.97;99969.25;6072904;28;20036;-66
2023/07/29 13:02:05;;;;;;;2.20;0.97;;;;;;;25.75;50.29;99966.09;6069907;28;20026;-66
2023/07/29 13:05:00;;;;;;;3.23;0.90;;;;;;;25.69;49.79;99966.31;6068713;28;20476;-66
2023/07/29 13:07:56;;;;;;;1.57;0.90;;;;;;;25.51;50.00;99970.31;6061655;28;20104;-65
2023/07/29 13:10:51;;;;;;;1.53;0.80;;;;;;;25.80;49.38;99979.69;6046729;28;20072;-66
2023/07/29 13:13:46;;;;;;;1.50;0.90;;;;;;;25.85;48.35;99974.28;6046464;28;20062;-66
2023/07/29 13:16:42;;;;;;;1.57;0.90;;;;;;;26.00;49.30;99984.44;6046107;28;20323;-66
2023/07/29 13:19:37;;;;;;;1.40;0.90;;;;;;;25.92;47.96;99966.75;6052782;28;20037;-66
2023/07/29 13:22:32;;;;;;;1.67;0.90;;;;;;;26.46;48.13;99983.56;6052674;28;20030;-65
2023/07/29 13:25:28;;;;;;;2.30;0.90;;;;;;;26.64;47.24;99971.34;6054525;28;20112;-66
2023/07/29 13:28:23;;;;;;;1.90;0.80;;;;;;;25.88;46.55;99975.66;6058020;28;20272;-66
2023/07/29 13:31:18;;;;;;;1.95;0.88;;;;;;;25.33;48.99;99989.66;6047863;28;20269;-66
2023/07/29 13:34:14;;;;;;;3.10;1.00;;;;;;;24.66;52.26;99976.59;6045113;28;20068;-66